sensor_id;sensor_type;location;lat;lon;timestamp;P1;durP1;ratioP1;P2;durP2;ratioP2
1358;SDS011;673;48.098;14.422;2022-12-18T00:01:00;34.97;;;19.45;;
1358;SDS011;673;48.098;14.422;2022-12-18T00:03:32;33.30;;;18.30;;
1358;SDS011;673;48.098;14.422;2022-12-18T00:05:59;31.58;;;20.65;;
1358;SDS011;673;48.098;14.422;2022-12-18T00:08:26;36.10;;;20.23;;
1358;SDS011;673;48.098;14.422;2022-12-18T00:10:53;36.72;;;20.30;;
1358;SDS011;673;48.098;14.422;2022-12-18T00:13:20;38.97;;;20.33;;
1358;SDS011;673;48.098;14.422;2022-12-18T00:15:47;31.55;;;18.55;;
1358;SDS011;673;48.098;14.422;2022-12-18T00:18:14;35.13;;;18.95;;
1358;SDS011;673;48.098;14.422;2022-12-18T00:20:42;30.58;;;17.33;;
1358;SDS011;673;48.098;14.422;2022-12-18T00:23:10;32.78;;;19.08;;
1358;SDS011;673;48.098;14.422;2022-12-18T00:25:36;37.97;;;18.88;;
1358;SDS011;673;48.098;14.422;2022-12-18T00:28:03;26.23;;;16.90;;
1358;SDS011;673;48.098;14.422;2022-12-18T00:30:30;30.73;;;17.13;;
1358;SDS011;673;48.098;14.422;2022-12-18T00:32:57;28.73;;;16.05;;
1358;SDS011;673;48.098;14.422;2022-12-18T00:35:24;31.15;;;17.73;;
1358;SDS011;673;48.098;14.422;2022-12-18T00:37:52;28.27;;;16.13;;
1358;SDS011;673;48.098;14.422;2022-12-18T00:40:19;39.63;;;22.27;;
1358;SDS011;673;48.098;14.422;2022-12-18T00:42:46;35.47;;;19.80;;
1358;SDS011;673;48.098;14.422;2022-12-18T00:45:24;35.17;;;20.58;;
1358;SDS011;673;48.098;14.422;2022-12-18T00:47:51;35.17;;;22.60;;
1358;SDS011;673;48.098;14.422;2022-12-18T00:50:19;31.00;;;18.63;;
1358;SDS011;673;48.098;14.422;2022-12-18T00:52:46;33.03;;;17.77;;
1358;SDS011;673;48.098;14.422;2022-12-18T00:55:15;27.02;;;15.82;;
1358;SDS011;673;48.098;14.422;2022-12-18T00:57:42;34.17;;;17.80;;
1358;SDS011;673;48.098;14.422;2022-12-18T01:00:10;32.88;;;17.63;;
1358;SDS011;673;48.098;14.422;2022-12-18T01:02:39;27.02;;;18.45;;
1358;SDS011;673;48.098;14.422;2022-12-18T01:05:06;27.80;;;15.60;;
1358;SDS011;673;48.098;14.422;2022-12-18T01:07:34;27.70;;;17.65;;
1358;SDS011;673;48.098;14.422;2022-12-18T01:10:02;25.65;;;16.52;;
1358;SDS011;673;48.098;14.422;2022-12-18T01:12:31;25.02;;;16.65;;
1358;SDS011;673;48.098;14.422;2022-12-18T01:14:58;22.33;;;15.00;;
1358;SDS011;673;48.098;14.422;2022-12-18T01:17:25;27.60;;;16.10;;
1358;SDS011;673;48.098;14.422;2022-12-18T01:19:52;27.98;;;15.30;;
1358;SDS011;673;48.098;14.422;2022-12-18T01:22:19;32.63;;;19.13;;
1358;SDS011;673;48.098;14.422;2022-12-18T01:24:46;75.75;;;29.80;;
1358;SDS011;673;48.098;14.422;2022-12-18T01:27:14;87.75;;;35.22;;
1358;SDS011;673;48.098;14.422;2022-12-18T01:29:42;65.65;;;29.48;;
1358;SDS011;673;48.098;14.422;2022-12-18T01:32:09;59.15;;;24.60;;
1358;SDS011;673;48.098;14.422;2022-12-18T01:34:36;75.13;;;32.05;;
1358;SDS011;673;48.098;14.422;2022-12-18T01:37:03;53.67;;;25.92;;
1358;SDS011;673;48.098;14.422;2022-12-18T01:39:31;70.13;;;30.67;;
1358;SDS011;673;48.098;14.422;2022-12-18T01:41:58;71.10;;;28.13;;
1358;SDS011;673;48.098;14.422;2022-12-18T01:47:26;52.67;;;27.40;;
1358;SDS011;673;48.098;14.422;2022-12-18T01:49:58;48.92;;;27.63;;
1358;SDS011;673;48.098;14.422;2022-12-18T01:52:28;56.30;;;28.35;;
1358;SDS011;673;48.098;14.422;2022-12-18T01:54:57;59.67;;;27.30;;
1358;SDS011;673;48.098;14.422;2022-12-18T01:57:26;61.60;;;30.33;;
1358;SDS011;673;48.098;14.422;2022-12-18T01:59:55;71.32;;;34.65;;
1358;SDS011;673;48.098;14.422;2022-12-18T02:02:25;93.57;;;34.47;;
1358;SDS011;673;48.098;14.422;2022-12-18T02:04:54;77.15;;;33.05;;
1358;SDS011;673;48.098;14.422;2022-12-18T02:07:23;65.85;;;30.58;;
1358;SDS011;673;48.098;14.422;2022-12-18T02:09:58;65.75;;;29.60;;
1358;SDS011;673;48.098;14.422;2022-12-18T02:12:30;59.20;;;30.10;;
1358;SDS011;673;48.098;14.422;2022-12-18T02:15:09;61.30;;;28.55;;
1358;SDS011;673;48.098;14.422;2022-12-18T02:17:42;65.72;;;26.90;;
1358;SDS011;673;48.098;14.422;2022-12-18T02:20:13;68.35;;;29.27;;
1358;SDS011;673;48.098;14.422;2022-12-18T02:22:46;72.82;;;32.42;;
1358;SDS011;673;48.098;14.422;2022-12-18T02:25:29;55.42;;;29.23;;
1358;SDS011;673;48.098;14.422;2022-12-18T02:28:10;68.63;;;34.05;;
1358;SDS011;673;48.098;14.422;2022-12-18T02:30:39;66.57;;;30.70;;
1358;SDS011;673;48.098;14.422;2022-12-18T02:33:08;51.70;;;27.38;;
1358;SDS011;673;48.098;14.422;2022-12-18T02:35:37;57.72;;;28.85;;
1358;SDS011;673;48.098;14.422;2022-12-18T02:38:06;64.15;;;28.50;;
1358;SDS011;673;48.098;14.422;2022-12-18T02:40:34;56.17;;;28.25;;
1358;SDS011;673;48.098;14.422;2022-12-18T02:43:06;54.55;;;28.05;;
1358;SDS011;673;48.098;14.422;2022-12-18T02:45:35;44.65;;;24.73;;
1358;SDS011;673;48.098;14.422;2022-12-18T02:48:12;52.80;;;25.80;;
1358;SDS011;673;48.098;14.422;2022-12-18T02:50:41;63.53;;;30.40;;
1358;SDS011;673;48.098;14.422;2022-12-18T02:53:17;68.30;;;30.13;;
1358;SDS011;673;48.098;14.422;2022-12-18T02:55:54;56.95;;;26.35;;
1358;SDS011;673;48.098;14.422;2022-12-18T02:58:28;59.33;;;25.00;;
1358;SDS011;673;48.098;14.422;2022-12-18T03:01:06;54.08;;;28.10;;
1358;SDS011;673;48.098;14.422;2022-12-18T03:03:38;69.85;;;26.17;;
1358;SDS011;673;48.098;14.422;2022-12-18T03:06:09;64.82;;;29.50;;
1358;SDS011;673;48.098;14.422;2022-12-18T03:08:41;61.92;;;31.48;;
1358;SDS011;673;48.098;14.422;2022-12-18T03:11:11;57.45;;;27.17;;
1358;SDS011;673;48.098;14.422;2022-12-18T03:13:41;53.47;;;25.77;;
1358;SDS011;673;48.098;14.422;2022-12-18T03:16:12;59.80;;;27.23;;
1358;SDS011;673;48.098;14.422;2022-12-18T03:18:45;49.88;;;27.00;;
1358;SDS011;673;48.098;14.422;2022-12-18T03:21:14;50.92;;;26.02;;
1358;SDS011;673;48.098;14.422;2022-12-18T03:23:44;59.55;;;29.08;;
1358;SDS011;673;48.098;14.422;2022-12-18T03:26:14;47.47;;;23.02;;
1358;SDS011;673;48.098;14.422;2022-12-18T03:28:44;61.65;;;28.02;;
1358;SDS011;673;48.098;14.422;2022-12-18T03:31:15;53.88;;;27.70;;
1358;SDS011;673;48.098;14.422;2022-12-18T03:33:44;56.40;;;30.40;;
1358;SDS011;673;48.098;14.422;2022-12-18T03:36:13;54.78;;;25.92;;
1358;SDS011;673;48.098;14.422;2022-12-18T03:38:40;71.30;;;34.28;;
1358;SDS011;673;48.098;14.422;2022-12-18T03:41:10;68.30;;;30.60;;
1358;SDS011;673;48.098;14.422;2022-12-18T03:43:44;57.60;;;28.40;;
1358;SDS011;673;48.098;14.422;2022-12-18T03:46:20;52.00;;;26.92;;
1358;SDS011;673;48.098;14.422;2022-12-18T03:48:55;56.90;;;26.55;;
1358;SDS011;673;48.098;14.422;2022-12-18T03:51:26;68.93;;;29.98;;
1358;SDS011;673;48.098;14.422;2022-12-18T03:54:02;61.90;;;30.15;;
1358;SDS011;673;48.098;14.422;2022-12-18T03:56:31;60.90;;;27.90;;
1358;SDS011;673;48.098;14.422;2022-12-18T03:59:03;64.72;;;28.92;;
1358;SDS011;673;48.098;14.422;2022-12-18T04:01:33;59.25;;;26.92;;
1358;SDS011;673;48.098;14.422;2022-12-18T04:04:03;50.35;;;28.08;;
1358;SDS011;673;48.098;14.422;2022-12-18T04:06:32;51.95;;;26.52;;
1358;SDS011;673;48.098;14.422;2022-12-18T04:08:59;60.03;;;28.55;;
1358;SDS011;673;48.098;14.422;2022-12-18T04:11:26;57.40;;;27.95;;
1358;SDS011;673;48.098;14.422;2022-12-18T04:13:55;54.50;;;27.15;;
1358;SDS011;673;48.098;14.422;2022-12-18T04:16:23;57.20;;;29.35;;
1358;SDS011;673;48.098;14.422;2022-12-18T04:18:51;56.85;;;28.25;;
1358;SDS011;673;48.098;14.422;2022-12-18T04:21:18;66.18;;;30.35;;
1358;SDS011;673;48.098;14.422;2022-12-18T04:23:46;57.22;;;25.23;;
1358;SDS011;673;48.098;14.422;2022-12-18T04:26:13;67.85;;;30.63;;
1358;SDS011;673;48.098;14.422;2022-12-18T04:28:39;66.88;;;34.30;;
1358;SDS011;673;48.098;14.422;2022-12-18T04:31:06;94.63;;;34.25;;
1358;SDS011;673;48.098;14.422;2022-12-18T04:33:33;76.20;;;31.35;;
1358;SDS011;673;48.098;14.422;2022-12-18T04:36:02;61.13;;;31.08;;
1358;SDS011;673;48.098;14.422;2022-12-18T04:38:29;50.95;;;27.33;;
1358;SDS011;673;48.098;14.422;2022-12-18T04:40:56;65.82;;;28.10;;
1358;SDS011;673;48.098;14.422;2022-12-18T04:43:23;58.65;;;27.55;;
1358;SDS011;673;48.098;14.422;2022-12-18T04:45:50;61.60;;;28.67;;
1358;SDS011;673;48.098;14.422;2022-12-18T04:48:17;68.68;;;28.55;;
1358;SDS011;673;48.098;14.422;2022-12-18T04:50:46;55.85;;;26.10;;
1358;SDS011;673;48.098;14.422;2022-12-18T04:53:15;66.47;;;29.48;;
1358;SDS011;673;48.098;14.422;2022-12-18T04:55:42;59.08;;;30.77;;
1358;SDS011;673;48.098;14.422;2022-12-18T04:58:08;74.68;;;27.77;;
1358;SDS011;673;48.098;14.422;2022-12-18T05:00:35;55.00;;;30.33;;
1358;SDS011;673;48.098;14.422;2022-12-18T05:03:02;61.88;;;31.38;;
1358;SDS011;673;48.098;14.422;2022-12-18T05:05:29;58.38;;;29.50;;
1358;SDS011;673;48.098;14.422;2022-12-18T05:07:56;55.95;;;28.48;;
1358;SDS011;673;48.098;14.422;2022-12-18T05:10:25;78.03;;;31.40;;
1358;SDS011;673;48.098;14.422;2022-12-18T05:12:52;116.28;;;42.35;;
1358;SDS011;673;48.098;14.422;2022-12-18T05:15:26;65.63;;;30.90;;
1358;SDS011;673;48.098;14.422;2022-12-18T05:17:54;66.75;;;30.42;;
1358;SDS011;673;48.098;14.422;2022-12-18T05:20:21;64.32;;;30.08;;
1358;SDS011;673;48.098;14.422;2022-12-18T05:22:48;59.92;;;32.35;;
1358;SDS011;673;48.098;14.422;2022-12-18T05:25:15;57.80;;;26.67;;
1358;SDS011;673;48.098;14.422;2022-12-18T05:27:43;50.40;;;27.38;;
1358;SDS011;673;48.098;14.422;2022-12-18T05:30:11;79.78;;;28.35;;
1358;SDS011;673;48.098;14.422;2022-12-18T05:32:38;46.05;;;25.42;;
1358;SDS011;673;48.098;14.422;2022-12-18T05:35:06;52.80;;;23.90;;
1358;SDS011;673;48.098;14.422;2022-12-18T05:37:34;39.60;;;22.02;;
1358;SDS011;673;48.098;14.422;2022-12-18T05:40:02;42.65;;;21.58;;
1358;SDS011;673;48.098;14.422;2022-12-18T05:42:30;38.70;;;21.95;;
1358;SDS011;673;48.098;14.422;2022-12-18T05:44:58;47.88;;;20.88;;
1358;SDS011;673;48.098;14.422;2022-12-18T05:47:26;49.53;;;24.30;;
1358;SDS011;673;48.098;14.422;2022-12-18T05:49:53;35.03;;;19.35;;
1358;SDS011;673;48.098;14.422;2022-12-18T05:52:20;29.88;;;20.85;;
1358;SDS011;673;48.098;14.422;2022-12-18T05:54:47;35.97;;;17.48;;
1358;SDS011;673;48.098;14.422;2022-12-18T05:57:14;34.50;;;18.73;;
1358;SDS011;673;48.098;14.422;2022-12-18T05:59:41;29.30;;;16.52;;
1358;SDS011;673;48.098;14.422;2022-12-18T06:02:09;49.10;;;22.63;;
1358;SDS011;673;48.098;14.422;2022-12-18T06:04:36;44.70;;;23.08;;
1358;SDS011;673;48.098;14.422;2022-12-18T06:07:03;37.00;;;21.60;;
1358;SDS011;673;48.098;14.422;2022-12-18T06:09:30;41.85;;;19.45;;
1358;SDS011;673;48.098;14.422;2022-12-18T06:11:58;42.08;;;22.45;;
1358;SDS011;673;48.098;14.422;2022-12-18T06:14:25;43.25;;;22.15;;
1358;SDS011;673;48.098;14.422;2022-12-18T06:16:52;56.55;;;25.00;;
1358;SDS011;673;48.098;14.422;2022-12-18T06:19:20;39.75;;;21.75;;
1358;SDS011;673;48.098;14.422;2022-12-18T06:21:47;60.92;;;26.67;;
1358;SDS011;673;48.098;14.422;2022-12-18T06:24:14;50.38;;;23.00;;
1358;SDS011;673;48.098;14.422;2022-12-18T06:26:41;45.53;;;25.85;;
1358;SDS011;673;48.098;14.422;2022-12-18T06:29:08;51.55;;;27.40;;
1358;SDS011;673;48.098;14.422;2022-12-18T06:31:35;55.45;;;27.08;;
1358;SDS011;673;48.098;14.422;2022-12-18T06:34:02;42.67;;;23.33;;
1358;SDS011;673;48.098;14.422;2022-12-18T06:36:31;42.83;;;25.67;;
1358;SDS011;673;48.098;14.422;2022-12-18T06:38:58;50.70;;;27.80;;
1358;SDS011;673;48.098;14.422;2022-12-18T06:41:26;44.95;;;25.45;;
1358;SDS011;673;48.098;14.422;2022-12-18T06:43:52;44.10;;;24.30;;
1358;SDS011;673;48.098;14.422;2022-12-18T06:46:19;49.03;;;28.38;;
1358;SDS011;673;48.098;14.422;2022-12-18T06:48:47;50.00;;;23.30;;
1358;SDS011;673;48.098;14.422;2022-12-18T06:51:16;87.90;;;50.05;;
1358;SDS011;673;48.098;14.422;2022-12-18T06:53:45;99.15;;;56.15;;
1358;SDS011;673;48.098;14.422;2022-12-18T06:56:12;73.15;;;40.38;;
1358;SDS011;673;48.098;14.422;2022-12-18T06:58:39;46.35;;;30.58;;
1358;SDS011;673;48.098;14.422;2022-12-18T07:01:08;42.17;;;26.50;;
1358;SDS011;673;48.098;14.422;2022-12-18T07:03:36;55.08;;;32.30;;
1358;SDS011;673;48.098;14.422;2022-12-18T07:06:03;51.22;;;29.83;;
1358;SDS011;673;48.098;14.422;2022-12-18T07:08:31;52.75;;;30.95;;
1358;SDS011;673;48.098;14.422;2022-12-18T07:11:02;43.20;;;23.88;;
1358;SDS011;673;48.098;14.422;2022-12-18T07:13:30;59.72;;;33.88;;
1358;SDS011;673;48.098;14.422;2022-12-18T07:16:02;52.03;;;29.48;;
1358;SDS011;673;48.098;14.422;2022-12-18T07:18:30;54.20;;;32.92;;
1358;SDS011;673;48.098;14.422;2022-12-18T07:20:57;43.40;;;22.90;;
1358;SDS011;673;48.098;14.422;2022-12-18T07:23:28;38.67;;;23.63;;
1358;SDS011;673;48.098;14.422;2022-12-18T07:26:01;41.88;;;25.60;;
1358;SDS011;673;48.098;14.422;2022-12-18T07:28:30;54.55;;;30.40;;
1358;SDS011;673;48.098;14.422;2022-12-18T07:30:57;39.08;;;25.30;;
1358;SDS011;673;48.098;14.422;2022-12-18T07:33:24;48.65;;;25.08;;
1358;SDS011;673;48.098;14.422;2022-12-18T07:35:51;51.65;;;25.60;;
1358;SDS011;673;48.098;14.422;2022-12-18T07:38:18;53.20;;;32.83;;
1358;SDS011;673;48.098;14.422;2022-12-18T07:40:45;40.38;;;21.92;;
1358;SDS011;673;48.098;14.422;2022-12-18T07:43:13;35.40;;;20.27;;
1358;SDS011;673;48.098;14.422;2022-12-18T07:45:41;46.65;;;23.77;;
1358;SDS011;673;48.098;14.422;2022-12-18T07:48:08;52.53;;;23.05;;
1358;SDS011;673;48.098;14.422;2022-12-18T07:50:36;43.58;;;22.05;;
1358;SDS011;673;48.098;14.422;2022-12-18T07:53:04;49.25;;;25.92;;
1358;SDS011;673;48.098;14.422;2022-12-18T07:55:31;38.28;;;19.70;;
1358;SDS011;673;48.098;14.422;2022-12-18T07:58:00;42.13;;;20.63;;
1358;SDS011;673;48.098;14.422;2022-12-18T08:00:29;30.73;;;17.58;;
1358;SDS011;673;48.098;14.422;2022-12-18T08:02:56;32.53;;;19.23;;
1358;SDS011;673;48.098;14.422;2022-12-18T08:05:23;50.65;;;24.05;;
1358;SDS011;673;48.098;14.422;2022-12-18T08:07:50;35.50;;;18.00;;
1358;SDS011;673;48.098;14.422;2022-12-18T08:10:18;36.15;;;18.65;;
1358;SDS011;673;48.098;14.422;2022-12-18T08:12:45;42.58;;;21.50;;
1358;SDS011;673;48.098;14.422;2022-12-18T08:15:15;33.17;;;17.75;;
1358;SDS011;673;48.098;14.422;2022-12-18T08:17:44;39.63;;;19.58;;
1358;SDS011;673;48.098;14.422;2022-12-18T08:20:11;39.22;;;23.65;;
1358;SDS011;673;48.098;14.422;2022-12-18T08:22:39;32.33;;;19.65;;
1358;SDS011;673;48.098;14.422;2022-12-18T08:25:06;36.83;;;18.20;;
1358;SDS011;673;48.098;14.422;2022-12-18T08:27:33;34.47;;;19.70;;
1358;SDS011;673;48.098;14.422;2022-12-18T08:30:01;42.75;;;20.10;;
1358;SDS011;673;48.098;14.422;2022-12-18T08:32:28;38.83;;;18.80;;
1358;SDS011;673;48.098;14.422;2022-12-18T08:34:56;34.80;;;20.75;;
1358;SDS011;673;48.098;14.422;2022-12-18T08:37:23;43.03;;;21.27;;
1358;SDS011;673;48.098;14.422;2022-12-18T08:39:50;30.40;;;18.08;;
1358;SDS011;673;48.098;14.422;2022-12-18T08:42:17;38.38;;;18.23;;
1358;SDS011;673;48.098;14.422;2022-12-18T08:45:01;31.02;;;16.48;;
1358;SDS011;673;48.098;14.422;2022-12-18T08:47:29;31.55;;;17.88;;
1358;SDS011;673;48.098;14.422;2022-12-18T08:49:57;29.60;;;14.50;;
1358;SDS011;673;48.098;14.422;2022-12-18T08:52:24;34.67;;;17.80;;
1358;SDS011;673;48.098;14.422;2022-12-18T08:54:51;27.02;;;14.77;;
1358;SDS011;673;48.098;14.422;2022-12-18T08:57:18;26.08;;;14.00;;
1358;SDS011;673;48.098;14.422;2022-12-18T08:59:45;31.08;;;17.38;;
1358;SDS011;673;48.098;14.422;2022-12-18T09:02:11;23.10;;;14.82;;
1358;SDS011;673;48.098;14.422;2022-12-18T09:04:38;23.25;;;14.27;;
1358;SDS011;673;48.098;14.422;2022-12-18T09:07:08;30.45;;;13.50;;
1358;SDS011;673;48.098;14.422;2022-12-18T09:09:35;26.85;;;16.25;;
1358;SDS011;673;48.098;14.422;2022-12-18T09:12:02;27.63;;;16.33;;
1358;SDS011;673;48.098;14.422;2022-12-18T09:14:29;24.83;;;15.68;;
1358;SDS011;673;48.098;14.422;2022-12-18T09:16:56;32.55;;;20.08;;
1358;SDS011;673;48.098;14.422;2022-12-18T09:19:23;27.88;;;17.33;;
1358;SDS011;673;48.098;14.422;2022-12-18T09:21:50;29.65;;;16.33;;
1358;SDS011;673;48.098;14.422;2022-12-18T09:24:18;29.20;;;17.17;;
1358;SDS011;673;48.098;14.422;2022-12-18T09:26:45;24.58;;;15.35;;
1358;SDS011;673;48.098;14.422;2022-12-18T09:29:12;23.45;;;14.93;;
1358;SDS011;673;48.098;14.422;2022-12-18T09:31:39;25.42;;;15.80;;
1358;SDS011;673;48.098;14.422;2022-12-18T09:34:06;26.90;;;15.02;;
1358;SDS011;673;48.098;14.422;2022-12-18T09:36:34;30.35;;;16.02;;
1358;SDS011;673;48.098;14.422;2022-12-18T09:39:01;25.27;;;15.00;;
1358;SDS011;673;48.098;14.422;2022-12-18T09:41:35;25.05;;;15.10;;
1358;SDS011;673;48.098;14.422;2022-12-18T09:44:11;32.03;;;17.75;;
1358;SDS011;673;48.098;14.422;2022-12-18T09:46:45;28.15;;;16.52;;
1358;SDS011;673;48.098;14.422;2022-12-18T09:49:16;25.88;;;14.40;;
1358;SDS011;673;48.098;14.422;2022-12-18T09:51:47;24.90;;;13.85;;
1358;SDS011;673;48.098;14.422;2022-12-18T09:54:20;25.25;;;16.08;;
1358;SDS011;673;48.098;14.422;2022-12-18T09:56:50;29.08;;;14.13;;
1358;SDS011;673;48.098;14.422;2022-12-18T09:59:18;25.70;;;15.30;;
1358;SDS011;673;48.098;14.422;2022-12-18T10:01:50;22.98;;;13.65;;
1358;SDS011;673;48.098;14.422;2022-12-18T10:04:17;42.65;;;29.00;;
1358;SDS011;673;48.098;14.422;2022-12-18T10:06:45;23.42;;;14.45;;
1358;SDS011;673;48.098;14.422;2022-12-18T10:09:20;33.55;;;16.88;;
1358;SDS011;673;48.098;14.422;2022-12-18T10:11:58;25.92;;;16.25;;
1358;SDS011;673;48.098;14.422;2022-12-18T10:14:34;25.08;;;15.60;;
1358;SDS011;673;48.098;14.422;2022-12-18T10:17:17;30.48;;;16.63;;
1358;SDS011;673;48.098;14.422;2022-12-18T10:19:53;18.40;;;14.15;;
1358;SDS011;673;48.098;14.422;2022-12-18T10:22:30;16.55;;;12.52;;
1358;SDS011;673;48.098;14.422;2022-12-18T10:25:09;21.33;;;11.85;;
1358;SDS011;673;48.098;14.422;2022-12-18T10:27:46;20.73;;;12.07;;
1358;SDS011;673;48.098;14.422;2022-12-18T10:30:14;15.27;;;9.63;;
1358;SDS011;673;48.098;14.422;2022-12-18T10:32:43;22.40;;;11.05;;
1358;SDS011;673;48.098;14.422;2022-12-18T10:35:14;18.08;;;11.18;;
1358;SDS011;673;48.098;14.422;2022-12-18T10:37:59;21.67;;;12.27;;
1358;SDS011;673;48.098;14.422;2022-12-18T10:40:30;12.30;;;7.05;;
1358;SDS011;673;48.098;14.422;2022-12-18T10:43:10;19.70;;;11.32;;
1358;SDS011;673;48.098;14.422;2022-12-18T10:45:39;21.50;;;11.85;;
1358;SDS011;673;48.098;14.422;2022-12-18T10:48:17;23.85;;;13.18;;
1358;SDS011;673;48.098;14.422;2022-12-18T10:50:46;18.63;;;12.05;;
1358;SDS011;673;48.098;14.422;2022-12-18T10:53:18;22.77;;;15.77;;
1358;SDS011;673;48.098;14.422;2022-12-18T10:55:47;25.17;;;16.33;;
1358;SDS011;673;48.098;14.422;2022-12-18T10:58:24;19.88;;;15.02;;
1358;SDS011;673;48.098;14.422;2022-12-18T11:01:03;18.77;;;11.50;;
1358;SDS011;673;48.098;14.422;2022-12-18T11:03:33;13.48;;;8.82;;
1358;SDS011;673;48.098;14.422;2022-12-18T11:06:02;16.33;;;10.13;;
1358;SDS011;673;48.098;14.422;2022-12-18T11:08:31;20.05;;;12.98;;
1358;SDS011;673;48.098;14.422;2022-12-18T11:10:58;13.38;;;10.07;;
1358;SDS011;673;48.098;14.422;2022-12-18T11:13:27;19.80;;;14.23;;
1358;SDS011;673;48.098;14.422;2022-12-18T11:15:56;17.92;;;9.63;;
1358;SDS011;673;48.098;14.422;2022-12-18T11:18:25;21.05;;;12.57;;
1358;SDS011;673;48.098;14.422;2022-12-18T11:20:55;19.48;;;11.77;;
1358;SDS011;673;48.098;14.422;2022-12-18T11:23:23;21.58;;;12.65;;
1358;SDS011;673;48.098;14.422;2022-12-18T11:25:51;20.17;;;12.18;;
1358;SDS011;673;48.098;14.422;2022-12-18T11:28:29;19.35;;;11.85;;
1358;SDS011;673;48.098;14.422;2022-12-18T11:31:11;19.02;;;12.15;;
1358;SDS011;673;48.098;14.422;2022-12-18T11:33:44;19.20;;;11.75;;
1358;SDS011;673;48.098;14.422;2022-12-18T11:36:16;17.92;;;11.55;;
1358;SDS011;673;48.098;14.422;2022-12-18T11:38:45;17.30;;;10.43;;
1358;SDS011;673;48.098;14.422;2022-12-18T11:41:15;21.15;;;10.98;;
1358;SDS011;673;48.098;14.422;2022-12-18T11:43:50;17.63;;;11.80;;
1358;SDS011;673;48.098;14.422;2022-12-18T11:46:23;14.88;;;10.50;;
1358;SDS011;673;48.098;14.422;2022-12-18T11:48:58;23.42;;;12.80;;
1358;SDS011;673;48.098;14.422;2022-12-18T11:51:31;16.42;;;10.65;;
1358;SDS011;673;48.098;14.422;2022-12-18T11:54:04;15.20;;;11.45;;
1358;SDS011;673;48.098;14.422;2022-12-18T11:56:39;23.60;;;14.57;;
1358;SDS011;673;48.098;14.422;2022-12-18T11:59:15;14.82;;;8.68;;
1358;SDS011;673;48.098;14.422;2022-12-18T12:01:51;20.77;;;12.98;;
1358;SDS011;673;48.098;14.422;2022-12-18T12:07:26;22.50;;;11.90;;
1358;SDS011;673;48.098;14.422;2022-12-18T12:10:04;20.17;;;10.95;;
1358;SDS011;673;48.098;14.422;2022-12-18T12:12:47;15.07;;;9.68;;
1358;SDS011;673;48.098;14.422;2022-12-18T12:15:28;18.70;;;13.45;;
1358;SDS011;673;48.098;14.422;2022-12-18T12:18:06;27.80;;;13.73;;
1358;SDS011;673;48.098;14.422;2022-12-18T12:20:41;15.07;;;10.25;;
1358;SDS011;673;48.098;14.422;2022-12-18T12:23:15;25.55;;;13.40;;
1358;SDS011;673;48.098;14.422;2022-12-18T12:25:52;19.10;;;11.70;;
1358;SDS011;673;48.098;14.422;2022-12-18T12:28:30;20.92;;;13.10;;
1358;SDS011;673;48.098;14.422;2022-12-18T12:31:13;14.40;;;10.70;;
1358;SDS011;673;48.098;14.422;2022-12-18T12:33:51;22.25;;;14.30;;
1358;SDS011;673;48.098;14.422;2022-12-18T12:36:25;23.23;;;13.55;;
1358;SDS011;673;48.098;14.422;2022-12-18T12:39:02;23.92;;;13.43;;
1358;SDS011;673;48.098;14.422;2022-12-18T12:41:33;18.75;;;12.63;;
1358;SDS011;673;48.098;14.422;2022-12-18T12:44:20;17.60;;;11.82;;
1358;SDS011;673;48.098;14.422;2022-12-18T12:46:54;16.40;;;12.23;;
1358;SDS011;673;48.098;14.422;2022-12-18T12:49:25;20.67;;;12.50;;
1358;SDS011;673;48.098;14.422;2022-12-18T12:51:57;21.48;;;12.63;;
1358;SDS011;673;48.098;14.422;2022-12-18T12:54:27;15.10;;;13.50;;
1358;SDS011;673;48.098;14.422;2022-12-18T12:56:57;27.55;;;17.60;;
1358;SDS011;673;48.098;14.422;2022-12-18T12:59:30;28.45;;;15.57;;
1358;SDS011;673;48.098;14.422;2022-12-18T13:02:10;23.55;;;15.85;;
1358;SDS011;673;48.098;14.422;2022-12-18T13:04:45;23.33;;;15.50;;
1358;SDS011;673;48.098;14.422;2022-12-18T13:07:19;27.77;;;16.85;;
1358;SDS011;673;48.098;14.422;2022-12-18T13:10:12;24.45;;;14.07;;
1358;SDS011;673;48.098;14.422;2022-12-18T13:12:52;25.50;;;13.95;;
1358;SDS011;673;48.098;14.422;2022-12-18T13:15:23;27.08;;;14.27;;
1358;SDS011;673;48.098;14.422;2022-12-18T13:18:04;18.75;;;14.35;;
1358;SDS011;673;48.098;14.422;2022-12-18T13:20:40;21.90;;;14.63;;
1358;SDS011;673;48.098;14.422;2022-12-18T13:23:26;19.70;;;13.80;;
1358;SDS011;673;48.098;14.422;2022-12-18T13:25:57;21.00;;;14.57;;
1358;SDS011;673;48.098;14.422;2022-12-18T13:34:30;26.85;;;14.77;;
1358;SDS011;673;48.098;14.422;2022-12-18T13:43:15;21.45;;;13.65;;
1358;SDS011;673;48.098;14.422;2022-12-18T13:45:58;35.65;;;13.70;;
1358;SDS011;673;48.098;14.422;2022-12-18T13:48:32;24.00;;;13.90;;
1358;SDS011;673;48.098;14.422;2022-12-18T13:51:05;25.48;;;14.15;;
1358;SDS011;673;48.098;14.422;2022-12-18T13:53:35;28.42;;;16.95;;
1358;SDS011;673;48.098;14.422;2022-12-18T13:56:05;23.55;;;15.88;;
1358;SDS011;673;48.098;14.422;2022-12-18T13:58:32;31.58;;;15.40;;
1358;SDS011;673;48.098;14.422;2022-12-18T14:00:59;20.92;;;13.18;;
1358;SDS011;673;48.098;14.422;2022-12-18T14:03:28;23.13;;;15.18;;
1358;SDS011;673;48.098;14.422;2022-12-18T14:05:58;26.90;;;14.18;;
1358;SDS011;673;48.098;14.422;2022-12-18T14:08:33;18.65;;;11.07;;
1358;SDS011;673;48.098;14.422;2022-12-18T14:11:04;29.90;;;14.95;;
1358;SDS011;673;48.098;14.422;2022-12-18T14:13:33;25.67;;;16.08;;
1358;SDS011;673;48.098;14.422;2022-12-18T14:16:03;25.05;;;13.07;;
1358;SDS011;673;48.098;14.422;2022-12-18T14:18:36;29.33;;;17.08;;
1358;SDS011;673;48.098;14.422;2022-12-18T14:21:14;28.10;;;16.05;;
1358;SDS011;673;48.098;14.422;2022-12-18T14:23:47;36.80;;;16.95;;
1358;SDS011;673;48.098;14.422;2022-12-18T14:26:22;24.75;;;16.50;;
1358;SDS011;673;48.098;14.422;2022-12-18T14:28:52;30.45;;;15.32;;
1358;SDS011;673;48.098;14.422;2022-12-18T14:31:20;23.92;;;14.93;;
1358;SDS011;673;48.098;14.422;2022-12-18T14:33:49;36.67;;;18.00;;
1358;SDS011;673;48.098;14.422;2022-12-18T14:36:17;24.65;;;13.65;;
1358;SDS011;673;48.098;14.422;2022-12-18T14:38:49;33.53;;;20.10;;
1358;SDS011;673;48.098;14.422;2022-12-18T14:41:18;38.92;;;20.17;;
1358;SDS011;673;48.098;14.422;2022-12-18T14:43:47;28.63;;;15.75;;
1358;SDS011;673;48.098;14.422;2022-12-18T14:46:25;27.20;;;17.45;;
1358;SDS011;673;48.098;14.422;2022-12-18T14:48:56;27.60;;;16.05;;
1358;SDS011;673;48.098;14.422;2022-12-18T14:51:27;40.40;;;21.77;;
1358;SDS011;673;48.098;14.422;2022-12-18T14:53:58;33.75;;;20.67;;
1358;SDS011;673;48.098;14.422;2022-12-18T14:56:27;70.07;;;34.63;;
1358;SDS011;673;48.098;14.422;2022-12-18T14:58:57;43.58;;;25.83;;
1358;SDS011;673;48.098;14.422;2022-12-18T15:01:26;49.38;;;28.88;;
1358;SDS011;673;48.098;14.422;2022-12-18T15:03:55;36.15;;;19.80;;
1358;SDS011;673;48.098;14.422;2022-12-18T15:06:26;32.90;;;17.60;;
1358;SDS011;673;48.098;14.422;2022-12-18T15:08:55;31.88;;;18.50;;
1358;SDS011;673;48.098;14.422;2022-12-18T15:11:32;42.17;;;23.73;;
1358;SDS011;673;48.098;14.422;2022-12-18T15:16:53;40.35;;;22.20;;
1358;SDS011;673;48.098;14.422;2022-12-18T15:19:21;38.13;;;22.05;;
1358;SDS011;673;48.098;14.422;2022-12-18T15:21:52;30.98;;;16.65;;
1358;SDS011;673;48.098;14.422;2022-12-18T15:24:24;35.83;;;22.33;;
1358;SDS011;673;48.098;14.422;2022-12-18T15:26:57;56.60;;;35.10;;